Time;durP1;ratioP1;P1;durP2;ratioP2;P2;SDS_P1;SDS_P2;PMS_P1;PMS_P2;Temp;Humidity;BMP_temperature;BMP_pressure;BME280_temperature;BME280_humidity;BME280_pressure;Samples;Min_cycle;Max_cycle;Signal;HPM_P1;HPM_P2
2021/10/11 00:00:13;;;;;;;42.53;30.83;;;;;;;;;;5018932;28;20453;-80
2021/10/11 00:02:40;;;;;;;45.37;31.30;;;;;;;;;;5021728;28;20997;-81
2021/10/11 00:05:10;;;;;;;38.83;27.90;;;;;;;;;;5038312;28;21207;-80
2021/10/11 00:07:37;;;;;;;37.07;27.33;;;;;;;;;;5036753;28;20426;-82
2021/10/11 00:10:05;;;;;;;35.80;25.67;;;;;;;;;;5028340;28;20484;-81
2021/10/11 00:12:32;;;;;;;35.40;25.30;;;;;;;;;;5014344;28;20466;-83
2021/10/11 00:15:00;;;;;;;36.70;24.77;;;;;;;;;;5024156;28;20569;-81
2021/10/11 00:17:28;;;;;;;35.27;26.17;;;;;;;;;;5027915;28;20458;-82
2021/10/11 00:19:55;;;;;;;32.57;23.80;;;;;;;;;;5034515;28;20449;-81
2021/10/11 00:22:22;;;;;;;30.83;21.50;;;;;;;;;;5028491;28;20478;-82
2021/10/11 00:24:50;;;;;;;27.07;22.27;;;;;;;;;;5003612;28;20814;-80
2021/10/11 00:27:17;;;;;;;32.27;20.67;;;;;;;;;;5020434;28;20431;-80
2021/10/11 00:29:44;;;;;;;29.50;22.40;;;;;;;;;;5037056;28;20813;-79
2021/10/11 00:32:13;;;;;;;26.60;20.80;;;;;;;;;;5029839;28;20465;-81
2021/10/11 00:34:40;;;;;;;29.83;22.43;;;;;;;;;;5031826;28;20446;-81
2021/10/11 00:37:07;;;;;;;29.67;22.03;;;;;;;;;;5024880;28;20461;-81
2021/10/11 00:39:34;;;;;;;28.37;22.47;;;;;;;;;;5026025;28;20450;-81
2021/10/11 00:42:02;;;;;;;29.27;21.37;;;;;;;;;;5032244;28;20458;-80
2021/10/11 00:44:29;;;;;;;26.83;20.97;;;;;;;;;;5034243;28;20465;-83
2021/10/11 00:46:56;;;;;;;28.17;21.17;;;;;;;;;;5027628;28;20505;-81
2021/10/11 00:49:25;;;;;;;30.80;21.90;;;;;;;;;;5028991;28;20462;-82
2021/10/11 00:51:52;;;;;;;30.50;21.40;;;;;;;;;;5036792;28;20806;-80
2021/10/11 00:54:19;;;;;;;29.67;22.77;;;;;;;;;;5028934;28;20486;-80
2021/10/11 00:56:47;;;;;;;31.30;21.70;;;;;;;;;;5031183;28;20932;-80
2021/10/11 00:59:14;;;;;;;30.00;22.47;;;;;;;;;;5031485;28;20449;-80
2021/10/11 01:01:41;;;;;;;28.63;21.53;;;;;;;;;;5018133;28;20465;-80
2021/10/11 01:04:08;;;;;;;28.67;21.10;;;;;;;;;;5021748;28;20508;-80
2021/10/11 01:06:37;;;;;;;27.90;22.07;;;;;;;;;;5035740;28;20556;-80
2021/10/11 01:09:05;;;;;;;27.17;23.07;;;;;;;;;;5030503;28;20433;-80
2021/10/11 01:11:33;;;;;;;28.33;19.93;;;;;;;;;;5033126;28;20985;-79
2021/10/11 01:14:00;;;;;;;28.63;21.07;;;;;;;;;;5013274;28;20481;-79
2021/10/11 01:16:27;;;;;;;29.10;20.63;;;;;;;;;;5031130;28;20446;-79
2021/10/11 01:18:54;;;;;;;30.57;22.43;;;;;;;;;;5021980;28;21021;-81
2021/10/11 01:21:23;;;;;;;29.13;21.70;;;;;;;;;;5023604;28;20450;-79
2021/10/11 01:23:50;;;;;;;25.47;19.50;;;;;;;;;;5026276;28;20480;-81
2021/10/11 01:26:17;;;;;;;26.27;20.13;;;;;;;;;;5022229;28;20514;-80
2021/10/11 01:28:45;;;;;;;29.13;21.37;;;;;;;;;;5030807;28;20460;-81
2021/10/11 01:31:12;;;;;;;26.47;21.53;;;;;;;;;;5029530;28;20944;-81
2021/10/11 01:33:39;;;;;;;27.17;20.33;;;;;;;;;;5031662;28;20818;-81
2021/10/11 01:36:06;;;;;;;25.60;19.90;;;;;;;;;;5036806;28;20788;-79
2021/10/11 01:38:35;;;;;;;28.50;19.40;;;;;;;;;;5025613;28;20446;-82
2021/10/11 01:41:02;;;;;;;27.27;21.07;;;;;;;;;;5026937;28;20826;-82
2021/10/11 01:43:29;;;;;;;27.27;19.80;;;;;;;;;;5030859;28;20457;-80
2021/10/11 01:45:56;;;;;;;30.27;22.83;;;;;;;;;;5029254;28;20481;-81
2021/10/11 01:48:23;;;;;;;28.23;20.80;;;;;;;;;;5027178;28;20450;-81
2021/10/11 01:50:50;;;;;;;27.37;21.23;;;;;;;;;;5034335;28;20458;-82
2021/10/11 01:53:18;;;;;;;30.07;22.70;;;;;;;;;;5034566;28;20453;-80
2021/10/11 01:55:46;;;;;;;26.77;20.57;;;;;;;;;;5030376;28;20446;-81
2021/10/11 01:58:13;;;;;;;27.27;19.90;;;;;;;;;;5022166;28;20478;-81
2021/10/11 02:00:40;;;;;;;25.07;18.67;;;;;;;;;;5026752;28;20450;-82
2021/10/11 02:03:07;;;;;;;26.90;19.23;;;;;;;;;;5027080;28;20968;-81
2021/10/11 02:05:35;;;;;;;24.60;18.67;;;;;;;;;;5023058;28;21119;-81
2021/10/11 02:08:02;;;;;;;24.10;18.23;;;;;;;;;;5032911;28;20454;-82
2021/10/11 02:10:29;;;;;;;25.23;18.83;;;;;;;;;;5046950;28;20433;-81
2021/10/11 02:12:58;;;;;;;24.53;18.90;;;;;;;;;;5036046;28;20489;-79
2021/10/11 02:15:25;;;;;;;23.13;18.73;;;;;;;;;;5030607;28;20438;-81
2021/10/11 02:17:53;;;;;;;25.13;19.10;;;;;;;;;;5026702;28;20465;-82
2021/10/11 02:20:20;;;;;;;25.90;19.30;;;;;;;;;;5027568;28;20462;-80
2021/10/11 02:22:47;;;;;;;26.00;20.07;;;;;;;;;;5035893;28;20476;-81
2021/10/11 02:25:14;;;;;;;25.53;19.13;;;;;;;;;;5026498;28;20983;-80
2021/10/11 02:27:41;;;;;;;22.30;18.67;;;;;;;;;;5028691;28;20502;-81
2021/10/11 02:30:11;;;;;;;28.73;19.77;;;;;;;;;;5024645;28;20458;-82
2021/10/11 02:32:39;;;;;;;25.73;19.37;;;;;;;;;;5022471;28;20484;-79
2021/10/11 02:35:07;;;;;;;25.60;19.43;;;;;;;;;;5022741;28;20515;-80
2021/10/11 02:37:34;;;;;;;28.73;20.47;;;;;;;;;;5031721;28;21700;-80
2021/10/11 02:40:01;;;;;;;25.63;19.03;;;;;;;;;;5032867;28;20935;-79
2021/10/11 02:42:28;;;;;;;25.00;19.13;;;;;;;;;;5033303;28;20553;-81
2021/10/11 02:44:55;;;;;;;27.93;20.00;;;;;;;;;;5030523;28;20454;-81
2021/10/11 02:47:24;;;;;;;27.30;19.80;;;;;;;;;;5022240;28;20486;-79
2021/10/11 02:49:51;;;;;;;24.37;20.10;;;;;;;;;;5025918;28;20462;-81
2021/10/11 02:52:18;;;;;;;26.60;19.90;;;;;;;;;;5036085;28;20477;-81
2021/10/11 02:54:45;;;;;;;27.10;19.47;;;;;;;;;;5034869;28;20463;-80
2021/10/11 02:57:12;;;;;;;23.50;19.80;;;;;;;;;;5033534;28;20453;-84
2021/10/11 02:59:39;;;;;;;25.87;21.13;;;;;;;;;;5047726;28;20437;-80
2021/10/11 03:02:06;;;;;;;26.30;19.30;;;;;;;;;;5038879;28;20827;-80
2021/10/11 03:04:35;;;;;;;26.90;18.60;;;;;;;;;;5028014;28;20458;-79
2021/10/11 03:07:02;;;;;;;24.57;19.30;;;;;;;;;;5016425;28;20548;-81
2021/10/11 03:09:30;;;;;;;23.80;19.47;;;;;;;;;;5026567;28;20466;-79
2021/10/11 03:11:57;;;;;;;25.93;20.37;;;;;;;;;;5024508;28;20450;-80
2021/10/11 03:14:24;;;;;;;29.57;22.43;;;;;;;;;;5035750;28;20474;-82
2021/10/11 03:16:51;;;;;;;28.50;22.30;;;;;;;;;;5036803;28;20916;-81
2021/10/11 03:19:18;;;;;;;28.83;20.73;;;;;;;;;;5030895;28;20470;-81
2021/10/11 03:21:47;;;;;;;30.13;22.10;;;;;;;;;;5028664;28;20443;-81
2021/10/11 03:24:14;;;;;;;29.77;21.70;;;;;;;;;;5018064;28;20575;-81
2021/10/11 03:26:41;;;;;;;28.57;22.53;;;;;;;;;;5033487;28;20496;-81
2021/10/11 03:29:08;;;;;;;26.77;19.53;;;;;;;;;;5025471;28;20458;-81
2021/10/11 03:31:35;;;;;;;32.27;21.10;;;;;;;;;;5033836;28;20458;-80
2021/10/11 03:34:04;;;;;;;29.67;20.33;;;;;;;;;;5028067;28;20486;-81
2021/10/11 03:36:31;;;;;;;31.10;22.43;;;;;;;;;;5034883;28;20500;-81
2021/10/11 03:38:59;;;;;;;27.97;21.17;;;;;;;;;;5036491;28;20778;-80
2021/10/11 03:41:27;;;;;;;29.53;21.20;;;;;;;;;;5035201;28;20453;-81
2021/10/11 03:43:56;;;;;;;32.33;21.40;;;;;;;;;;5035454;28;20805;-81
2021/10/11 03:46:31;;;;;;;27.77;21.10;;;;;;;;;;5030391;28;20875;-81
2021/10/11 03:49:10;;;;;;;27.77;20.83;;;;;;;;;;5033961;28;20817;-82
2021/10/11 03:51:46;;;;;;;30.10;22.77;;;;;;;;;;5028477;28;20463;-82
2021/10/11 03:54:19;;;;;;;34.63;23.40;;;;;;;;;;5028223;28;20849;-82
2021/10/11 03:56:46;;;;;;;30.80;23.10;;;;;;;;;;5033401;28;20450;-82
2021/10/11 04:02:00;;;;;;;30.87;21.43;;;;;;;;;;5011387;28;20429;-83
2021/10/11 04:04:32;;;;;;;32.37;23.43;;;;;;;;;;5027186;28;20766;-81
2021/10/11 04:07:08;;;;;;;34.40;24.70;;;;;;;;;;5032268;28;21026;-82
2021/10/11 04:09:37;;;;;;;36.67;25.43;;;;;;;;;;5023228;28;20465;-80
2021/10/11 04:12:08;;;;;;;41.23;27.27;;;;;;;;;;5021013;28;20454;-81
2021/10/11 04:14:36;;;;;;;37.83;27.13;;;;;;;;;;5034048;28;20595;-80
2021/10/11 04:17:03;;;;;;;42.50;27.93;;;;;;;;;;5039151;28;20436;-80
2021/10/11 04:19:30;;;;;;;37.10;27.70;;;;;;;;;;5026909;28;20462;-81
2021/10/11 04:21:57;;;;;;;42.70;29.70;;;;;;;;;;5020389;28;20454;-81
2021/10/11 04:24:24;;;;;;;35.33;26.57;;;;;;;;;;5029051;28;20464;-81
2021/10/11 04:26:53;;;;;;;37.20;26.57;;;;;;;;;;5032015;28;20496;-80
2021/10/11 04:29:20;;;;;;;36.73;25.47;;;;;;;;;;5019363;28;20962;-81
2021/10/11 04:31:47;;;;;;;36.40;26.03;;;;;;;;;;5030200;28;20458;-80
2021/10/11 04:34:15;;;;;;;33.27;25.60;;;;;;;;;;5024094;28;20482;-80
2021/10/11 04:36:42;;;;;;;36.13;24.83;;;;;;;;;;5019793;28;20815;-80
2021/10/11 04:39:09;;;;;;;35.63;25.63;;;;;;;;;;5021159;28;20463;-80
2021/10/11 04:41:36;;;;;;;32.17;24.63;;;;;;;;;;5013939;28;20446;-81
2021/10/11 04:44:07;;;;;;;37.03;24.77;;;;;;;;;;5013588;28;20470;-82
2021/10/11 04:46:34;;;;;;;34.27;26.40;;;;;;;;;;5023677;28;20469;-82
2021/10/11 04:49:02;;;;;;;35.57;24.20;;;;;;;;;;5036914;28;21017;-81
2021/10/11 04:51:29;;;;;;;34.10;25.10;;;;;;;;;;5032342;28;20963;-82
2021/10/11 04:53:56;;;;;;;30.83;23.60;;;;;;;;;;5025838;28;20521;-81
2021/10/11 04:56:23;;;;;;;29.90;22.10;;;;;;;;;;5013265;28;20450;-80
2021/10/11 04:58:51;;;;;;;30.10;22.00;;;;;;;;;;5013546;28;20454;-81
2021/10/11 05:01:21;;;;;;;31.97;21.93;;;;;;;;;;5012072;28;20959;-81
2021/10/11 05:03:48;;;;;;;34.90;23.83;;;;;;;;;;5038477;28;20446;-82
2021/10/11 05:06:15;;;;;;;35.13;25.57;;;;;;;;;;5030723;28;20446;-81
2021/10/11 05:08:42;;;;;;;36.53;26.37;;;;;;;;;;5024480;28;20840;-80
2021/10/11 05:11:10;;;;;;;33.57;25.83;;;;;;;;;;5031771;28;20461;-81
2021/10/11 05:13:38;;;;;;;34.20;24.80;;;;;;;;;;5029258;28;20882;-81
2021/10/11 05:16:10;;;;;;;35.00;24.17;;;;;;;;;;5033646;28;20430;-81
2021/10/11 05:18:39;;;;;;;34.50;26.00;;;;;;;;;;5032220;28;20434;-82
2021/10/11 05:21:06;;;;;;;37.50;27.37;;;;;;;;;;5031732;28;20485;-81
2021/10/11 05:23:33;;;;;;;39.40;27.47;;;;;;;;;;5028978;28;20652;-81
2021/10/11 05:26:01;;;;;;;44.60;32.97;;;;;;;;;;5036374;28;20442;-81
2021/10/11 05:28:28;;;;;;;46.27;34.33;;;;;;;;;;5027989;28;21003;-80
2021/10/11 05:30:55;;;;;;;49.10;35.33;;;;;;;;;;5021684;28;20462;-82
2021/10/11 05:33:23;;;;;;;44.83;32.73;;;;;;;;;;5029173;28;20477;-81
2021/10/11 05:35:53;;;;;;;51.20;36.07;;;;;;;;;;5019679;28;20880;-80
2021/10/11 05:38:20;;;;;;;57.87;37.90;;;;;;;;;;5035759;28;20445;-82
2021/10/11 05:40:47;;;;;;;56.13;38.53;;;;;;;;;;5037708;28;20902;-81
2021/10/11 05:43:14;;;;;;;54.83;37.90;;;;;;;;;;5023800;28;20470;-80
2021/10/11 05:45:42;;;;;;;49.97;33.87;;;;;;;;;;5031463;28;20449;-81
2021/10/11 05:48:09;;;;;;;49.13;34.87;;;;;;;;;;5028810;28;20486;-82
2021/10/11 05:50:36;;;;;;;50.73;35.00;;;;;;;;;;5019498;28;20462;-81
2021/10/11 05:53:04;;;;;;;50.53;32.33;;;;;;;;;;5034985;28;20951;-82
2021/10/11 05:55:32;;;;;;;48.00;31.30;;;;;;;;;;5036914;28;20430;-81
2021/10/11 05:57:59;;;;;;;49.17;34.13;;;;;;;;;;5022635;28;20832;-80
2021/10/11 06:00:26;;;;;;;46.50;33.40;;;;;;;;;;5013354;28;20442;-81
2021/10/11 06:02:53;;;;;;;51.70;32.60;;;;;;;;;;5029170;28;20466;-81
2021/10/11 06:05:20;;;;;;;48.17;33.00;;;;;;;;;;5018720;28;20451;-81
2021/10/11 06:07:48;;;;;;;47.30;32.83;;;;;;;;;;5017575;28;20490;-82
2021/10/11 06:10:16;;;;;;;49.70;35.00;;;;;;;;;;5029742;28;20454;-82
2021/10/11 06:12:43;;;;;;;49.10;34.07;;;;;;;;;;5037314;28;20478;-82
2021/10/11 06:15:11;;;;;;;46.80;31.33;;;;;;;;;;5034080;28;20512;-81
2021/10/11 06:17:38;;;;;;;52.20;34.03;;;;;;;;;;5035753;28;20452;-80
2021/10/11 06:20:06;;;;;;;43.70;34.30;;;;;;;;;;5035302;28;20955;-81
2021/10/11 06:22:33;;;;;;;46.53;31.47;;;;;;;;;;5027480;28;20488;-80
2021/10/11 06:25:07;;;;;;;49.53;35.00;;;;;;;;;;5024057;28;20461;-82
2021/10/11 06:27:37;;;;;;;45.97;32.30;;;;;;;;;;5035168;28;21081;-80
2021/10/11 06:30:05;;;;;;;51.50;35.40;;;;;;;;;;5027918;28;20821;-81
2021/10/11 06:32:35;;;;;;;51.17;34.80;;;;;;;;;;5037698;28;20812;-81
2021/10/11 06:35:04;;;;;;;44.83;33.00;;;;;;;;;;5028741;28;20464;-79
2021/10/11 06:37:32;;;;;;;51.50;35.30;;;;;;;;;;5040033;28;20803;-80
2021/10/11 06:40:01;;;;;;;47.20;33.67;;;;;;;;;;5041411;28;20779;-81
2021/10/11 06:42:28;;;;;;;48.10;35.40;;;;;;;;;;5037511;28;21240;-81
2021/10/11 06:45:02;;;;;;;49.20;34.10;;;;;;;;;;5027121;28;20827;-79
2021/10/11 06:47:29;;;;;;;48.67;34.80;;;;;;;;;;5028631;28;20493;-81
2021/10/11 06:49:57;;;;;;;46.30;31.63;;;;;;;;;;5033242;28;20480;-80
2021/10/11 06:52:24;;;;;;;46.67;31.37;;;;;;;;;;5027229;28;20456;-79
2021/10/11 06:54:51;;;;;;;48.07;32.27;;;;;;;;;;5031722;28;20453;-79
2021/10/11 06:57:18;;;;;;;47.93;31.50;;;;;;;;;;5050430;28;20463;-80
2021/10/11 06:59:45;;;;;;;42.87;31.03;;;;;;;;;;5054063;28;20941;-80
2021/10/11 07:02:14;;;;;;;45.33;29.80;;;;;;;;;;5021168;28;20454;-80
2021/10/11 07:04:41;;;;;;;44.20;30.20;;;;;;;;;;5031245;28;20529;-81
2021/10/11 07:07:08;;;;;;;45.30;32.40;;;;;;;;;;5023064;28;20550;-80
2021/10/11 07:09:36;;;;;;;41.30;28.67;;;;;;;;;;5031329;28;20462;-80
2021/10/11 07:12:03;;;;;;;43.70;27.97;;;;;;;;;;5020022;28;20526;-81
2021/10/11 07:14:30;;;;;;;40.90;27.30;;;;;;;;;;5035733;28;20470;-80
2021/10/11 07:16:58;;;;;;;35.40;24.70;;;;;;;;;;5026702;28;20508;-79
2021/10/11 07:19:26;;;;;;;40.03;27.00;;;;;;;;;;5033996;28;20453;-78
2021/10/11 07:21:53;;;;;;;38.47;26.00;;;;;;;;;;5029341;28;20458;-79
2021/10/11 07:24:20;;;;;;;38.00;26.30;;;;;;;;;;5034649;28;20518;-79
2021/10/11 07:26:47;;;;;;;37.97;25.53;;;;;;;;;;5037639;28;20930;-78
2021/10/11 07:31:56;;;;;;;37.07;23.60;;;;;;;;;;5017566;28;20486;-79
2021/10/11 07:34:28;;;;;;;35.10;24.27;;;;;;;;;;5033824;28;20890;-80
2021/10/11 07:36:55;;;;;;;32.83;22.70;;;;;;;;;;5028909;28;20460;-79
2021/10/11 07:39:23;;;;;;;32.10;23.33;;;;;;;;;;5029266;28;20460;-79
2021/10/11 07:41:50;;;;;;;33.50;21.63;;;;;;;;;;5042531;28;20457;-79
2021/10/11 07:44:17;;;;;;;24.17;18.03;;;;;;;;;;5052777;28;20487;-79
2021/10/11 07:46:44;;;;;;;30.63;19.50;;;;;;;;;;5032457;28;20469;-79
2021/10/11 07:49:13;;;;;;;25.93;18.93;;;;;;;;;;5028772;28;20584;-80
2021/10/11 07:51:41;;;;;;;25.60;18.57;;;;;;;;;;5028240;28;20531;-80
2021/10/11 07:54:09;;;;;;;26.53;17.87;;;;;;;;;;5037144;28;20560;-80
2021/10/11 07:56:39;;;;;;;28.53;18.03;;;;;;;;;;5042401;28;20444;-81
2021/10/11 07:59:06;;;;;;;23.97;16.03;;;;;;;;;;5033694;28;20465;-80
2021/10/11 08:01:35;;;;;;;19.20;14.97;;;;;;;;;;5031256;28;20457;-82
2021/10/11 08:04:03;;;;;;;23.20;14.70;;;;;;;;;;5024019;28;20474;-80
2021/10/11 08:06:30;;;;;;;18.83;13.33;;;;;;;;;;5019201;28;20490;-79
2021/10/11 08:08:59;;;;;;;20.87;12.90;;;;;;;;;;5024123;28;20497;-78
2021/10/11 08:11:26;;;;;;;17.43;11.47;;;;;;;;;;5032964;28;20445;-80
2021/10/11 08:13:53;;;;;;;12.83;9.60;;;;;;;;;;5049343;28;20981;-79
2021/10/11 08:16:20;;;;;;;19.13;9.93;;;;;;;;;;5043363;28;20484;-82
2021/10/11 08:18:48;;;;;;;13.67;9.27;;;;;;;;;;5032766;28;20450;-79
2021/10/11 08:21:15;;;;;;;16.73;9.70;;;;;;;;;;5031833;28;20453;-77
2021/10/11 08:23:42;;;;;;;14.53;8.10;;;;;;;;;;5021841;28;20517;-82
2021/10/11 08:26:11;;;;;;;14.03;7.60;;;;;;;;;;5029217;28;20456;-82
2021/10/11 08:28:38;;;;;;;12.30;7.90;;;;;;;;;;5022351;28;20492;-78
2021/10/11 08:31:06;;;;;;;10.23;6.87;;;;;;;;;;5018599;28;20468;-78
2021/10/11 08:33:33;;;;;;;11.67;6.77;;;;;;;;;;5018619;28;20463;-81
2021/10/11 08:36:01;;;;;;;13.33;6.40;;;;;;;;;;5033470;28;20537;-79
2021/10/11 08:38:28;;;;;;;10.23;6.67;;;;;;;;;;5021952;28;20460;-80
2021/10/11 08:40:56;;;;;;;11.90;6.90;;;;;;;;;;5028947;28;20532;-78
2021/10/11 08:43:25;;;;;;;12.43;6.20;;;;;;;;;;5013022;28;20466;-78
2021/10/11 08:45:52;;;;;;;10.17;6.43;;;;;;;;;;5009106;28;20469;-79
2021/10/11 08:48:19;;;;;;;13.80;6.63;;;;;;;;;;5032069;28;20514;-80
2021/10/11 08:50:49;;;;;;;8.47;4.90;;;;;;;;;;5034529;28;20926;-78
2021/10/11 08:53:17;;;;;;;12.63;5.17;;;;;;;;;;5034110;28;20930;-79
2021/10/11 08:55:44;;;;;;;9.40;4.50;;;;;;;;;;5037875;28;20434;-77
2021/10/11 08:58:11;;;;;;;10.63;4.60;;;;;;;;;;5028122;28;20827;-78
2021/10/11 09:00:40;;;;;;;7.90;4.67;;;;;;;;;;5017603;28;20966;-82
2021/10/11 09:03:08;;;;;;;12.43;4.60;;;;;;;;;;5010885;28;20469;-81
2021/10/11 09:05:36;;;;;;;7.90;3.90;;;;;;;;;;5004967;28;20432;-82
2021/10/11 09:08:05;;;;;;;9.13;3.80;;;;;;;;;;5027136;28;20492;-82
2021/10/11 09:10:33;;;;;;;12.57;4.70;;;;;;;;;;5017695;28;20549;-80
2021/10/11 09:13:01;;;;;;;6.27;3.43;;;;;;;;;;5027193;28;20464;-81
2021/10/11 09:15:31;;;;;;;9.33;4.10;;;;;;;;;;5037475;28;20423;-81
2021/10/11 09:18:03;;;;;;;10.70;3.90;;;;;;;;;;5018303;28;20547;-79
2021/10/11 09:20:30;;;;;;;7.60;3.70;;;;;;;;;;5024702;28;20432;-79
2021/10/11 09:22:59;;;;;;;12.33;3.77;;;;;;;;;;5022888;28;20483;-80
2021/10/11 09:25:33;;;;;;;7.20;3.80;;;;;;;;;;5014466;28;20792;-78
2021/10/11 09:28:00;;;;;;;6.00;2.73;;;;;;;;;;5020769;28;20492;-79
2021/10/11 09:30:28;;;;;;;7.20;3.40;;;;;;;;;;5027837;28;20545;-78
2021/10/11 09:33:08;;;;;;;13.43;3.77;;;;;;;;;;5031182;28;20433;-79
2021/10/11 09:35:35;;;;;;;10.50;3.60;;;;;;;;;;5022596;28;20436;-78
2021/10/11 09:38:02;;;;;;;7.63;3.10;;;;;;;;;;5025616;28;20436;-83
2021/10/11 09:40:39;;;;;;;6.40;2.73;;;;;;;;;;5030047;28;20455;-79
2021/10/11 09:43:12;;;;;;;8.20;3.13;;;;;;;;;;5025309;28;20442;-79
2021/10/11 09:45:39;;;;;;;6.37;2.90;;;;;;;;;;5036123;28;20495;-81
2021/10/11 09:48:08;;;;;;;9.83;2.53;;;;;;;;;;5017120;28;21226;-79
2021/10/11 09:50:36;;;;;;;5.37;1.97;;;;;;;;;;5002999;28;20454;-79
2021/10/11 09:53:03;;;;;;;6.70;2.20;;;;;;;;;;5014103;28;20460;-80
2021/10/11 09:55:32;;;;;;;11.23;3.33;;;;;;;;;;5031509;28;20450;-78
2021/10/11 09:57:59;;;;;;;8.67;2.87;;;;;;;;;;5035852;28;20599;-80
2021/10/11 10:00:27;;;;;;;5.70;2.30;;;;;;;;;;5046047;28;20416;-80
2021/10/11 10:02:55;;;;;;;6.70;2.97;;;;;;;;;;5029693;28;20460;-80
2021/10/11 10:05:25;;;;;;;6.80;2.93;;;;;;;;;;5028851;28;20496;-80
2021/10/11 10:07:53;;;;;;;7.10;2.33;;;;;;;;;;5011448;28;20469;-79
2021/10/11 10:10:21;;;;;;;9.37;2.80;;;;;;;;;;5016640;28;20470;-79
2021/10/11 10:12:49;;;;;;;6.23;2.23;;;;;;;;;;5025731;28;20495;-80
2021/10/11 10:15:26;;;;;;;8.00;2.73;;;;;;;;;;5027485;28;20428;-81
2021/10/11 10:18:00;;;;;;;8.10;3.27;;;;;;;;;;5030249;28;20472;-81
2021/10/11 10:20:28;;;;;;;8.90;2.70;;;;;;;;;;5010503;28;20516;-79
2021/10/11 10:22:56;;;;;;;6.50;2.20;;;;;;;;;;5020456;28;20456;-80
2021/10/11 10:25:23;;;;;;;10.03;2.70;;;;;;;;;;5029921;28;20440;-79
2021/10/11 10:27:54;;;;;;;8.77;2.93;;;;;;;;;;5026996;28;20421;-77
2021/10/11 10:30:22;;;;;;;5.50;2.27;;;;;;;;;;5020056;28;20496;-79
2021/10/11 10:32:53;;;;;;;7.37;2.60;;;;;;;;;;5031886;28;20439;-77
2021/10/11 10:35:20;;;;;;;10.23;2.70;;;;;;;;;;5028185;28;20465;-78
2021/10/11 10:37:49;;;;;;;7.40;2.40;;;;;;;;;;5028987;28;20451;-83
2021/10/11 10:40:20;;;;;;;5.23;2.23;;;;;;;;;;5016869;28;20806;-78
2021/10/11 10:42:48;;;;;;;6.43;2.27;;;;;;;;;;5027329;28;20449;-80
2021/10/11 10:45:16;;;;;;;6.30;2.30;;;;;;;;;;5030782;28;20442;-80
2021/10/11 10:47:43;;;;;;;7.93;2.67;;;;;;;;;;5029598;28;20965;-78
2021/10/11 10:50:12;;;;;;;8.03;2.70;;;;;;;;;;5032863;28;20467;-76
2021/10/11 10:52:40;;;;;;;4.93;2.00;;;;;;;;;;5031456;28;20452;-79
2021/10/11 10:55:08;;;;;;;12.00;2.20;;;;;;;;;;5016680;28;20433;-79
2021/10/11 10:57:36;;;;;;;8.17;3.33;;;;;;;;;;5038405;28;20412;-76
2021/10/11 11:00:10;;;;;;;7.73;2.20;;;;;;;;;;5031290;28;20443;-76
2021/10/11 11:02:44;;;;;;;6.30;2.07;;;;;;;;;;5034112;28;20436;-75
2021/10/11 11:05:12;;;;;;;6.20;2.57;;;;;;;;;;5025396;28;20959;-78
2021/10/11 11:07:40;;;;;;;6.67;2.20;;;;;;;;;;5020819;28;20545;-77
2021/10/11 11:10:12;;;;;;;4.90;2.77;;;;;;;;;;5000165;28;20464;-77
2021/10/11 11:12:40;;;;;;;4.70;2.63;;;;;;;;;;5020745;28;20471;-78
2021/10/11 11:15:09;;;;;;;7.10;2.50;;;;;;;;;;5006669;28;20442;-81
2021/10/11 11:17:38;;;;;;;7.20;1.70;;;;;;;;;;5035909;28;20409;-79
2021/10/11 11:20:13;;;;;;;4.63;2.67;;;;;;;;;;5031121;28;20679;-78
2021/10/11 11:22:41;;;;;;;8.57;2.50;;;;;;;;;;5030429;28;20853;-78
2021/10/11 11:25:10;;;;;;;6.37;2.40;;;;;;;;;;5030648;28;20421;-79
2021/10/11 11:27:40;;;;;;;6.97;2.50;;;;;;;;;;5022152;28;20442;-80
2021/10/11 11:30:09;;;;;;;6.07;1.97;;;;;;;;;;5029439;28;20469;-77
2021/10/11 11:32:39;;;;;;;4.33;2.10;;;;;;;;;;4996208;28;20453;-78
2021/10/11 11:35:07;;;;;;;8.10;3.03;;;;;;;;;;5025273;28;20457;-80
2021/10/11 11:37:35;;;;;;;3.77;1.70;;;;;;;;;;5007298;28;20450;-77
2021/10/11 11:40:06;;;;;;;5.53;2.53;;;;;;;;;;5028355;28;21065;-77
2021/10/11 11:42:34;;;;;;;4.63;2.00;;;;;;;;;;5032530;28;20456;-77
2021/10/11 11:45:01;;;;;;;6.33;2.17;;;;;;;;;;5049122;28;20453;-80
2021/10/11 11:47:30;;;;;;;6.43;2.40;;;;;;;;;;5036710;28;20462;-81
2021/10/11 11:49:58;;;;;;;4.77;2.20;;;;;;;;;;5012607;28;20478;-79
2021/10/11 11:52:32;;;;;;;6.13;2.63;;;;;;;;;;5027031;28;20449;-77
2021/10/11 11:54:59;;;;;;;8.37;2.80;;;;;;;;;;5026624;28;20437;-78
2021/10/11 11:57:26;;;;;;;10.40;2.60;;;;;;;;;;5031718;28;20438;-79
2021/10/11 11:59:55;;;;;;;5.23;2.30;;;;;;;;;;5023922;28;20889;-79
2021/10/11 12:02:23;;;;;;;5.87;2.40;;;;;;;;;;5022317;28;20893;-77
2021/10/11 12:04:50;;;;;;;9.00;2.40;;;;;;;;;;5029278;28;20460;-78
2021/10/11 12:07:21;;;;;;;3.60;1.67;;;;;;;;;;5008697;28;20518;-78
2021/10/11 12:09:50;;;;;;;6.90;2.20;;;;;;;;;;5012266;28;20560;-80
2021/10/11 12:12:17;;;;;;;7.77;3.00;;;;;;;;;;5026441;28;20453;-79
2021/10/11 12:14:49;;;;;;;7.53;2.00;;;;;;;;;;5029315;28;20478;-79
2021/10/11 12:17:18;;;;;;;6.37;2.50;;;;;;;;;;5015447;28;20500;-77
2021/10/11 12:19:45;;;;;;;6.77;2.40;;;;;;;;;;5020305;28;20437;-78
2021/10/11 12:22:12;;;;;;;6.00;1.90;;;;;;;;;;5029782;28;20566;-76
2021/10/11 12:24:41;;;;;;;5.13;2.40;;;;;;;;;;5030878;28;20508;-80
2021/10/11 12:27:08;;;;;;;8.77;2.17;;;;;;;;;;5035192;28;20436;-80
2021/10/11 12:29:37;;;;;;;9.70;2.43;;;;;;;;;;5020933;28;20500;-78
2021/10/11 12:32:06;;;;;;;4.17;1.90;;;;;;;;;;5011062;28;20445;-78
2021/10/11 12:34:36;;;;;;;6.20;2.20;;;;;;;;;;5031318;28;20528;-80
2021/10/11 12:37:04;;;;;;;8.13;3.03;;;;;;;;;;5027616;28;20448;-78
2021/10/11 12:39:33;;;;;;;5.23;2.00;;;;;;;;;;5009330;28;20481;-79
2021/10/11 12:42:00;;;;;;;4.80;2.10;;;;;;;;;;5019848;28;20441;-76
2021/10/11 12:44:37;;;;;;;5.07;2.07;;;;;;;;;;5009210;28;20459;-79
2021/10/11 12:47:05;;;;;;;5.43;2.10;;;;;;;;;;5030310;28;20468;-81
2021/10/11 12:49:33;;;;;;;6.93;2.50;;;;;;;;;;5037570;28;20573;-80
2021/10/11 12:52:02;;;;;;;7.73;1.93;;;;;;;;;;5017081;28;20782;-78
2021/10/11 12:54:30;;;;;;;5.60;2.47;;;;;;;;;;5023462;28;20459;-78
2021/10/11 12:57:00;;;;;;;8.70;2.40;;;;;;;;;;5014081;28;20438;-79
2021/10/11 12:59:28;;;;;;;4.43;2.07;;;;;;;;;;5027990;28;20459;-76
2021/10/11 13:01:56;;;;;;;5.67;2.40;;;;;;;;;;5027451;28;20462;-78
2021/10/11 13:04:23;;;;;;;7.00;2.10;;;;;;;;;;5035130;28;22331;-78
2021/10/11 13:06:50;;;;;;;7.37;2.53;;;;;;;;;;5030439;28;20433;-78
2021/10/11 13:09:19;;;;;;;3.70;2.07;;;;;;;;;;5032783;28;20464;-77
2021/10/11 13:11:47;;;;;;;11.43;2.90;;;;;;;;;;5013794;28;20423;-80
2021/10/11 13:14:14;;;;;;;8.37;2.70;;;;;;;;;;5004948;28;20482;-78
2021/10/11 13:16:42;;;;;;;9.73;3.10;;;;;;;;;;5022131;28;20445;-80
2021/10/11 13:19:09;;;;;;;4.00;1.77;;;;;;;;;;5031458;28;20465;-76
2021/10/11 13:21:37;;;;;;;4.00;1.60;;;;;;;;;;5035941;28;20412;-77
2021/10/11 13:24:04;;;;;;;6.37;3.03;;;;;;;;;;5007822;28;20479;-78
2021/10/11 13:26:33;;;;;;;7.37;2.10;;;;;;;;;;5030464;28;20446;-78
2021/10/11 13:29:04;;;;;;;4.47;1.90;;;;;;;;;;5031151;28;20424;-78
2021/10/11 13:34:41;;;;;;;4.20;2.43;;;;;;;;;;4995604;28;20755;-80
2021/10/11 14:28:13;;;;;;;4.27;1.90;;;;;;;;;;5049528;28;20783;-80
2021/10/11 14:30:47;;;;;;;5.83;1.90;;;;;;;;;;5028535;28;20463;-77
2021/10/11 14:33:36;;;;;;;6.33;2.20;;;;;;;;;;5024905;28;20470;-80
2021/10/11 15:59:26;;;;;;;10.27;2.47;;;;;;;;;;5019731;28;20548;-77
2021/10/11 16:02:05;;;;;;;5.97;2.73;;;;;;;;;;5030451;28;20947;-80
2021/10/11 16:04:33;;;;;;;7.23;2.23;;;;;;;;;;5031152;28;20438;-77
2021/10/11 16:07:04;;;;;;;6.60;2.37;;;;;;;;;;5014752;28;20464;-76
2021/10/11 16:09:31;;;;;;;6.10;2.70;;;;;;;;;;5031415;28;20477;-79
2021/10/11 16:11:59;;;;;;;6.43;2.83;;;;;;;;;;5013058;28;20427;-78
2021/10/11 16:14:26;;;;;;;3.40;2.40;;;;;;;;;;5019763;28;20847;-76
2021/10/11 16:16:53;;;;;;;5.37;2.70;;;;;;;;;;5028386;28;20472;-77
2021/10/11 16:19:21;;;;;;;11.83;3.20;;;;;;;;;;5018535;28;20947;-81
2021/10/11 16:21:48;;;;;;;4.03;2.13;;;;;;;;;;5018080;28;20477;-77
2021/10/11 16:24:19;;;;;;;3.90;2.20;;;;;;;;;;5025368;28;20473;-77
2021/10/11 16:26:47;;;;;;;5.53;2.40;;;;;;;;;;5036369;28;20439;-76
2021/10/11 16:29:14;;;;;;;7.70;2.73;;;;;;;;;;5043879;28;20584;-83
2021/10/11 16:31:41;;;;;;;5.97;2.80;;;;;;;;;;5028340;28;20508;-77
2021/10/11 16:34:08;;;;;;;7.63;2.20;;;;;;;;;;5026733;28;20485;-78
2021/10/11 16:36:35;;;;;;;5.50;3.53;;;;;;;;;;5025307;28;20438;-78
2021/10/11 16:39:03;;;;;;;5.33;2.23;;;;;;;;;;5032572;28;22062;-78
2021/10/11 16:41:31;;;;;;;4.63;2.10;;;;;;;;;;5038558;28;20436;-80
2021/10/11 16:43:59;;;;;;;4.70;2.73;;;;;;;;;;5037183;28;20869;-78
2021/10/11 16:46:26;;;;;;;6.03;2.60;;;;;;;;;;5018148;28;20474;-76
2021/10/11 16:48:53;;;;;;;4.87;2.60;;;;;;;;;;5019960;28;20470;-76
2021/10/11 16:51:20;;;;;;;7.53;2.30;;;;;;;;;;5026770;28;20492;-76
2021/10/11 16:56:29;;;;;;;4.93;2.67;;;;;;;;;;5026344;28;20456;-77